createdAt,value
2022-11-18T00:01:22.206Z,33.13
2022-11-18T00:03:50.291Z,29.52
2022-11-18T00:06:19.767Z,27.35
2022-11-18T00:08:46.557Z,25.77
2022-11-18T00:11:38.508Z,30.33
2022-11-18T00:14:19.267Z,28.77
2022-11-18T00:17:01.158Z,32.05
2022-11-18T00:19:36.499Z,32.08
2022-11-18T00:22:04.159Z,26.63
2022-11-18T00:24:31.295Z,26.30
2022-11-18T00:26:57.994Z,34.28
2022-11-18T00:29:28.749Z,23.20
2022-11-18T00:31:56.282Z,28.58
2022-11-18T00:34:23.390Z,31.38
2022-11-18T00:36:50.241Z,26.63
2022-11-18T00:39:19.935Z,32.00
2022-11-18T00:42:05.847Z,29.15
2022-11-18T00:44:32.554Z,28.17
2022-11-18T00:46:59.327Z,33.60
2022-11-18T00:49:25.970Z,26.38
2022-11-18T00:51:52.495Z,23.38
2022-11-18T00:54:19.145Z,30.65
2022-11-18T00:56:45.721Z,26.30
2022-11-18T00:59:12.441Z,29.20
2022-11-18T01:01:39.138Z,20.75
2022-11-18T01:04:05.807Z,23.55
2022-11-18T01:06:32.331Z,27.05
2022-11-18T01:08:58.941Z,26.20
2022-11-18T01:11:44.419Z,25.35
2022-11-18T01:14:11.357Z,22.65
2022-11-18T01:16:37.974Z,24.25
2022-11-18T01:19:04.591Z,27.23
2022-11-18T01:21:31.100Z,23.42
2022-11-18T01:23:57.659Z,20.30
2022-11-18T01:26:24.214Z,24.88
2022-11-18T01:28:50.751Z,28.75
2022-11-18T01:31:19.224Z,25.88
2022-11-18T01:33:47.042Z,23.63
2022-11-18T01:36:22.864Z,22.30
2022-11-18T01:38:50.046Z,26.92
2022-11-18T01:41:18.690Z,31.73
2022-11-18T01:43:54.252Z,29.10
2022-11-18T01:46:22.623Z,24.90
2022-11-18T01:48:56.845Z,20.27
2022-11-18T01:51:29.862Z,25.75
2022-11-18T01:54:25.630Z,23.83
2022-11-18T01:57:00.224Z,23.00
2022-11-18T01:59:31.724Z,24.88
2022-11-18T02:02:01.443Z,17.30
2022-11-18T02:04:28.107Z,21.65
2022-11-18T02:06:55.563Z,22.30
2022-11-18T02:09:22.841Z,30.45
2022-11-18T02:11:54.297Z,24.55
2022-11-18T02:14:25.052Z,25.02
2022-11-18T02:17:03.898Z,28.73
2022-11-18T02:19:36.425Z,19.55
2022-11-18T02:22:08.860Z,20.70
2022-11-18T02:24:43.748Z,20.40
2022-11-18T02:27:25.550Z,19.88
2022-11-18T02:30:13.345Z,22.75
2022-11-18T02:32:57.974Z,20.08
2022-11-18T02:36:01.040Z,23.10
2022-11-18T02:38:42.749Z,21.27
2022-11-18T02:41:14.385Z,25.67
2022-11-18T02:43:48.990Z,23.70
2022-11-18T02:46:20.789Z,23.75
2022-11-18T02:48:50.868Z,27.75
2022-11-18T02:51:23.469Z,25.20
2022-11-18T02:53:51.554Z,28.88
2022-11-18T02:56:19.869Z,24.45
2022-11-18T02:58:46.617Z,25.30
2022-11-18T03:01:29.330Z,28.98
2022-11-18T03:03:56.361Z,29.90
2022-11-18T03:06:31.946Z,28.30
2022-11-18T03:09:07.243Z,38.08
2022-11-18T03:11:43.226Z,31.67
2022-11-18T03:14:43.799Z,27.67
2022-11-18T03:17:41.542Z,26.85
2022-11-18T03:20:25.353Z,32.72
2022-11-18T03:23:13.201Z,27.48
2022-11-18T03:25:51.070Z,30.52
2022-11-18T03:28:34.185Z,31.60
2022-11-18T03:31:14.761Z,31.40
2022-11-18T03:33:47.490Z,31.02
2022-11-18T03:36:16.921Z,41.10
2022-11-18T03:38:51.128Z,37.50
2022-11-18T03:41:27.199Z,34.35
2022-11-18T03:43:58.267Z,29.48
2022-11-18T03:46:48.258Z,39.00
2022-11-18T03:49:26.111Z,38.17
2022-11-18T03:51:58.434Z,41.17
2022-11-18T03:57:04.045Z,39.53
2022-11-18T03:59:40.002Z,34.13
2022-11-18T04:02:08.875Z,39.63
2022-11-18T04:04:35.534Z,42.60
2022-11-18T04:07:31.532Z,43.72
2022-11-18T04:10:11.375Z,39.45
2022-11-18T04:12:46.876Z,38.30
2022-11-18T04:15:14.394Z,40.33
2022-11-18T04:17:42.976Z,47.20
2022-11-18T04:20:17.015Z,35.40
2022-11-18T04:22:44.166Z,45.90
2022-11-18T04:25:11.459Z,38.72
2022-11-18T04:27:38.310Z,44.05
2022-11-18T04:30:06.370Z,38.70
2022-11-18T04:32:33.734Z,47.67
2022-11-18T04:35:00.382Z,42.92
2022-11-18T04:37:27.080Z,42.10
2022-11-18T04:39:53.652Z,53.80
2022-11-18T04:42:20.397Z,45.67
2022-11-18T04:44:46.971Z,52.10
2022-11-18T04:47:13.659Z,44.25
2022-11-18T04:49:40.238Z,45.03
2022-11-18T04:52:07.019Z,44.38
2022-11-18T04:54:33.711Z,43.33
2022-11-18T04:57:00.619Z,37.50
2022-11-18T04:59:29.079Z,41.03
2022-11-18T05:01:56.506Z,47.88
2022-11-18T05:04:25.823Z,44.15
2022-11-18T05:06:53.010Z,44.90
2022-11-18T05:09:20.557Z,41.50
2022-11-18T05:12:06.136Z,44.30
2022-11-18T05:14:33.072Z,36.58
2022-11-18T05:17:01.351Z,38.97
2022-11-18T05:19:28.084Z,47.72
2022-11-18T05:21:54.707Z,46.20
2022-11-18T05:24:23.970Z,38.83
2022-11-18T05:26:52.062Z,37.33
2022-11-18T05:29:20.181Z,37.40
2022-11-18T05:31:47.962Z,47.10
2022-11-18T05:34:15.471Z,46.40
2022-11-18T05:36:42.110Z,42.20
2022-11-18T05:39:09.143Z,60.33
2022-11-18T05:41:54.986Z,54.63
2022-11-18T05:44:21.667Z,41.55
2022-11-18T05:46:48.202Z,47.72
2022-11-18T05:49:15.319Z,52.35
2022-11-18T05:51:42.011Z,46.08
2022-11-18T05:54:10.146Z,39.60
2022-11-18T05:56:41.690Z,51.17
2022-11-18T05:59:08.270Z,45.33
2022-11-18T06:01:40.948Z,48.35
2022-11-18T06:04:16.026Z,47.40
2022-11-18T06:06:44.745Z,44.45
2022-11-18T06:09:13.564Z,44.65
2022-11-18T06:11:50.899Z,49.17
2022-11-18T06:14:27.276Z,54.75
2022-11-18T06:16:58.510Z,54.83
2022-11-18T06:19:26.004Z,48.58
2022-11-18T06:21:53.270Z,76.00
2022-11-18T06:24:20.210Z,66.95
2022-11-18T06:26:47.713Z,65.03
2022-11-18T06:29:22.894Z,62.95
2022-11-18T06:31:51.124Z,64.00
2022-11-18T06:34:17.864Z,74.07
2022-11-18T06:36:44.514Z,52.78
2022-11-18T06:39:11.291Z,47.50
2022-11-18T06:41:37.907Z,38.75
2022-11-18T06:44:04.482Z,50.65
2022-11-18T06:46:49.737Z,45.08
2022-11-18T06:49:17.244Z,40.15
2022-11-18T06:51:43.882Z,41.90
2022-11-18T06:54:11.236Z,50.50
2022-11-18T06:56:38.017Z,44.47
2022-11-18T06:59:04.785Z,42.20
2022-11-18T07:01:34.960Z,44.17
2022-11-18T07:04:02.114Z,46.60
2022-11-18T07:08:57.386Z,49.13
2022-11-18T07:11:26.136Z,63.30
2022-11-18T07:13:53.411Z,54.72
2022-11-18T07:16:22.676Z,38.58
2022-11-18T07:18:50.585Z,45.63
2022-11-18T07:21:23.399Z,49.15
2022-11-18T07:23:50.379Z,45.03
2022-11-18T07:26:18.065Z,43.53
2022-11-18T07:28:45.155Z,44.30
2022-11-18T07:31:17.569Z,40.58
2022-11-18T07:33:45.314Z,35.75
2022-11-18T07:36:14.999Z,31.77
2022-11-18T07:38:42.155Z,31.15
2022-11-18T07:41:11.903Z,34.17
2022-11-18T07:43:39.553Z,33.08
2022-11-18T07:46:17.568Z,42.90
2022-11-18T07:48:45.723Z,36.20
2022-11-18T07:51:14.627Z,41.40
2022-11-18T07:53:41.647Z,38.65
2022-11-18T07:56:08.812Z,40.03
2022-11-18T07:58:36.607Z,39.60
2022-11-18T08:01:12.446Z,32.20
2022-11-18T08:03:39.535Z,31.02
2022-11-18T08:06:07.873Z,36.20
2022-11-18T08:08:35.455Z,29.30
2022-11-18T08:11:05.949Z,31.42
2022-11-18T08:13:33.407Z,41.53
2022-11-18T08:16:00.271Z,37.05
2022-11-18T08:18:28.951Z,42.30
2022-11-18T08:20:55.575Z,45.60
2022-11-18T08:23:23.445Z,33.88
2022-11-18T08:25:52.667Z,30.00
2022-11-18T08:28:19.170Z,30.35
2022-11-18T08:30:45.978Z,46.67
2022-11-18T08:33:12.495Z,45.85
2022-11-18T08:35:39.023Z,41.47
2022-11-18T08:38:05.538Z,53.00
2022-11-18T08:40:33.914Z,82.68
2022-11-18T08:43:00.464Z,47.60
2022-11-18T08:45:27.050Z,46.72
2022-11-18T08:47:53.576Z,36.10
2022-11-18T08:50:20.294Z,34.17
2022-11-18T08:52:46.848Z,33.75
2022-11-18T08:55:13.460Z,35.55
2022-11-18T08:57:40.066Z,45.58
2022-11-18T09:00:08.235Z,43.55
2022-11-18T09:02:34.727Z,48.50
2022-11-18T09:05:01.369Z,34.78
2022-11-18T09:07:28.214Z,38.13
2022-11-18T09:09:54.943Z,44.15
2022-11-18T09:12:21.635Z,30.98
2022-11-18T09:17:35.535Z,38.15
2022-11-18T09:21:23.362Z,28.05
2022-11-18T09:23:49.969Z,32.15
2022-11-18T09:26:19.210Z,31.92
2022-11-18T09:28:45.855Z,31.33
2022-11-18T09:31:14.303Z,29.50
2022-11-18T09:33:41.808Z,33.65
2022-11-18T09:36:14.555Z,26.10
2022-11-18T09:38:41.466Z,23.67
2022-11-18T09:41:45.183Z,30.33
2022-11-18T09:44:30.704Z,28.02
2022-11-18T09:47:09.302Z,21.75
2022-11-18T09:49:38.426Z,27.00
2022-11-18T09:52:11.508Z,35.20
2022-11-18T09:54:39.131Z,23.75
2022-11-18T09:57:25.652Z,29.05
2022-11-18T09:59:53.316Z,27.15
2022-11-18T10:02:30.176Z,35.67
2022-11-18T10:05:02.134Z,27.50
2022-11-18T10:07:44.180Z,23.17
2022-11-18T10:10:19.428Z,31.38
2022-11-18T10:12:54.806Z,26.83
2022-11-18T10:15:46.467Z,28.20
2022-11-18T10:21:01.557Z,42.80
2022-11-18T10:23:36.536Z,32.10
2022-11-18T10:26:03.145Z,26.17
2022-11-18T10:28:31.218Z,27.98
2022-11-18T10:31:13.622Z,35.17
2022-11-18T10:33:40.249Z,32.08
2022-11-18T10:36:17.523Z,31.00
2022-11-18T10:38:49.774Z,35.63
2022-11-18T10:41:20.505Z,30.77
2022-11-18T10:43:54.948Z,35.95
2022-11-18T10:46:39.233Z,31.17
2022-11-18T10:49:08.599Z,40.60
2022-11-18T10:51:43.598Z,40.80
2022-11-18T10:54:21.198Z,41.33
2022-11-18T10:57:41.770Z,32.55
2022-11-18T11:00:34.034Z,40.78
2022-11-18T11:04:59.679Z,30.13
2022-11-18T11:07:27.771Z,33.30
2022-11-18T11:10:17.883Z,29.83
2022-11-18T11:13:12.762Z,34.20
2022-11-18T11:15:46.131Z,55.35
2022-11-18T11:18:41.643Z,59.30
2022-11-18T11:21:25.606Z,49.72
2022-11-18T11:23:52.261Z,66.80
2022-11-18T11:29:11.466Z,57.03
2022-11-18T11:34:44.631Z,82.63
2022-11-18T11:37:40.439Z,101.03
2022-11-18T11:42:26.527Z,63.22
2022-11-18T11:45:04.931Z,69.05
2022-11-18T11:48:06.822Z,58.60
2022-11-18T11:51:05.064Z,59.47
2022-11-18T11:54:07.275Z,63.67
2022-11-18T11:56:51.073Z,73.95
2022-11-18T11:59:28.192Z,67.78
2022-11-18T12:04:35.150Z,70.25
2022-11-18T12:07:04.450Z,62.13
2022-11-18T12:09:33.688Z,53.85
2022-11-18T12:12:38.564Z,69.28
2022-11-18T12:15:16.901Z,65.43
2022-11-18T12:18:00.383Z,53.28
2022-11-18T12:20:47.006Z,67.90
2022-11-18T12:23:23.300Z,61.92
2022-11-18T12:28:24.033Z,59.72
2022-11-18T12:30:51.263Z,73.43
2022-11-18T12:33:18.391Z,68.82
2022-11-18T12:35:51.617Z,72.60
2022-11-18T12:38:30.802Z,57.47
2022-11-18T12:40:57.450Z,61.40
2022-11-18T12:43:45.715Z,68.63
2022-11-18T12:46:34.988Z,72.35
2022-11-18T12:49:23.263Z,62.63
2022-11-18T12:51:51.053Z,96.38
2022-11-18T12:54:31.784Z,62.50
2022-11-18T12:57:18.795Z,76.65
2022-11-18T12:59:45.683Z,78.60
2022-11-18T13:02:12.120Z,74.93
2022-11-18T13:04:45.050Z,66.93
2022-11-18T13:07:35.434Z,65.07
2022-11-18T13:10:11.801Z,69.22
2022-11-18T13:12:40.043Z,59.83
2022-11-18T13:15:30.684Z,61.72
2022-11-18T13:18:13.604Z,53.05
2022-11-18T13:20:42.060Z,43.88
2022-11-18T13:23:33.365Z,50.78
2022-11-18T13:26:06.138Z,46.08
2022-11-18T13:28:43.011Z,49.72
2022-11-18T13:31:21.693Z,47.67
2022-11-18T13:33:50.687Z,54.47
2022-11-18T13:36:25.985Z,53.53
2022-11-18T13:38:56.880Z,47.97
2022-11-18T13:41:24.667Z,50.05
2022-11-18T13:43:54.025Z,58.85
2022-11-18T13:46:22.304Z,47.47
2022-11-18T13:48:59.060Z,55.38
2022-11-18T13:51:26.484Z,56.65
2022-11-18T13:55:19.768Z,51.50
2022-11-18T13:57:56.206Z,60.63
2022-11-18T14:00:26.503Z,56.65
2022-11-18T14:02:59.963Z,64.68
2022-11-18T14:05:27.202Z,57.50
2022-11-18T14:08:03.986Z,63.45
2022-11-18T14:10:39.293Z,49.88
2022-11-18T14:13:17.762Z,61.78
2022-11-18T14:15:45.940Z,95.82
2022-11-18T14:18:26.599Z,66.57
2022-11-18T14:20:54.766Z,53.88
2022-11-18T14:23:27.771Z,59.97
2022-11-18T14:25:55.143Z,59.20
2022-11-18T14:28:26.992Z,48.13
2022-11-18T14:30:56.599Z,51.22
2022-11-18T14:33:28.658Z,55.00
2022-11-18T14:36:17.881Z,69.15
2022-11-18T14:41:49.028Z,54.72
2022-11-18T14:44:20.171Z,50.92
2022-11-18T14:46:57.255Z,59.22
2022-11-18T14:49:25.962Z,57.40
2022-11-18T14:54:26.292Z,58.72
2022-11-18T14:56:57.380Z,45.40
2022-11-18T14:59:24.052Z,61.33
2022-11-18T15:01:50.793Z,57.92
2022-11-18T15:04:18.171Z,69.90
2022-11-18T15:06:45.294Z,60.95
2022-11-18T15:09:12.214Z,58.13
2022-11-18T15:11:39.159Z,59.25
2022-11-18T15:14:05.961Z,67.07
2022-11-18T15:16:33.984Z,66.18
2022-11-18T15:19:03.193Z,65.78
2022-11-18T15:21:30.101Z,69.93
2022-11-18T15:23:56.823Z,70.68
2022-11-18T15:26:35.634Z,73.72
2022-11-18T15:29:02.307Z,75.57
2022-11-18T15:31:28.871Z,68.07
2022-11-18T15:33:55.683Z,59.30
2022-11-18T15:36:24.167Z,62.50
2022-11-18T15:38:52.476Z,58.03
2022-11-18T15:41:27.291Z,55.95
2022-11-18T15:43:56.270Z,65.07
2022-11-18T15:46:24.967Z,55.38
2022-11-18T15:48:53.486Z,63.85
2022-11-18T15:51:20.696Z,58.88
2022-11-18T15:53:47.363Z,64.90
2022-11-18T15:56:14.690Z,58.58
2022-11-18T15:58:42.869Z,50.03
2022-11-18T16:01:09.512Z,52.60
2022-11-18T16:03:36.447Z,63.40
2022-11-18T16:06:03.715Z,67.20
2022-11-18T16:08:30.870Z,64.07
2022-11-18T16:11:16.819Z,54.03
2022-11-18T16:13:43.762Z,50.17
2022-11-18T16:16:25.464Z,48.15
2022-11-18T16:18:56.249Z,43.10
2022-11-18T16:21:23.487Z,61.28
2022-11-18T16:23:50.217Z,46.67
2022-11-18T16:26:17.367Z,55.50
2022-11-18T16:28:44.166Z,53.20
2022-11-18T16:31:29.467Z,48.45
2022-11-18T16:33:58.195Z,51.03
2022-11-18T16:36:28.177Z,49.90
2022-11-18T16:38:54.765Z,52.60
2022-11-18T16:43:49.135Z,47.30
2022-11-18T16:46:15.880Z,49.15
2022-11-18T16:48:42.390Z,44.30
2022-11-18T16:51:21.478Z,50.88
2022-11-18T16:53:56.512Z,52.65
2022-11-18T16:56:27.121Z,53.08
2022-11-18T16:59:02.154Z,52.95
2022-11-18T17:01:30.025Z,43.38
2022-11-18T17:03:57.650Z,55.13
2022-11-18T17:06:25.070Z,46.97
2022-11-18T17:08:52.495Z,52.42
2022-11-18T17:11:19.775Z,64.95
2022-11-18T17:13:46.403Z,58.42
2022-11-18T17:16:15.888Z,55.28
2022-11-18T17:18:43.103Z,55.22
2022-11-18T17:21:12.722Z,59.22
2022-11-18T17:23:40.687Z,46.10
2022-11-18T17:26:08.495Z,50.60
2022-11-18T17:28:37.335Z,53.13
2022-11-18T17:31:15.592Z,60.60
2022-11-18T17:33:42.915Z,48.42
2022-11-18T17:36:15.243Z,53.85
2022-11-18T17:41:32.891Z,57.85
2022-11-18T17:44:00.170Z,46.72
2022-11-18T17:46:27.082Z,51.10
2022-11-18T17:48:57.699Z,60.75
2022-11-18T17:51:25.446Z,58.67
2022-11-18T17:53:52.583Z,58.80
2022-11-18T17:56:19.759Z,57.30
2022-11-18T17:58:46.867Z,52.67
2022-11-18T18:01:15.602Z,50.83
2022-11-18T18:03:42.807Z,57.13
2022-11-18T18:06:13.499Z,54.08
2022-11-18T18:08:40.752Z,59.53
2022-11-18T18:11:13.420Z,49.25
2022-11-18T18:13:59.559Z,48.22
2022-11-18T18:16:27.178Z,56.15
2022-11-18T18:18:54.101Z,59.47
2022-11-18T18:21:20.634Z,47.85
2022-11-18T18:23:47.703Z,48.80
2022-11-18T18:26:14.974Z,45.85
2022-11-18T18:28:41.480Z,45.95
2022-11-18T18:31:10.597Z,53.90
2022-11-18T18:33:39.831Z,61.60
2022-11-18T18:36:09.633Z,50.38
2022-11-18T18:38:38.491Z,44.88
2022-11-18T18:41:12.194Z,40.42
2022-11-18T18:43:39.343Z,45.70
2022-11-18T18:46:29.385Z,54.58
2022-11-18T18:48:59.376Z,54.90
2022-11-18T18:51:27.748Z,40.38
2022-11-18T18:53:58.925Z,45.60
2022-11-18T18:56:26.611Z,36.17
2022-11-18T18:58:53.795Z,48.58
2022-11-18T19:01:20.991Z,43.90
2022-11-18T19:03:48.270Z,55.78
2022-11-18T19:06:51.689Z,42.75
2022-11-18T19:09:15.250Z,31.73
2022-11-18T19:12:01.007Z,37.15
2022-11-18T19:14:28.190Z,41.45
2022-11-18T19:16:55.502Z,40.15
2022-11-18T19:19:46.125Z,49.90
2022-11-18T19:22:14.711Z,43.08
2022-11-18T19:27:29.402Z,41.15
2022-11-18T19:29:56.010Z,49.95
2022-11-18T19:32:23.323Z,48.88
2022-11-18T19:34:49.894Z,46.10
2022-11-18T19:37:17.004Z,48.83
2022-11-18T19:39:43.910Z,44.80
2022-11-18T19:42:12.904Z,45.13
2022-11-18T19:44:39.520Z,39.63
2022-11-18T19:47:06.489Z,49.63
2022-11-18T19:49:33.110Z,41.70
2022-11-18T19:51:59.639Z,45.17
2022-11-18T19:54:28.879Z,39.42
2022-11-18T19:56:55.427Z,40.70
2022-11-18T19:59:23.160Z,37.53
2022-11-18T20:01:49.761Z,35.67
2022-11-18T20:04:19.507Z,41.25
2022-11-18T20:06:46.074Z,33.75
2022-11-18T20:09:13.295Z,35.70
2022-11-18T20:11:40.168Z,37.45
2022-11-18T20:14:08.262Z,30.42
2022-11-18T20:16:36.938Z,36.30
2022-11-18T20:19:09.441Z,41.33
2022-11-18T20:21:39.030Z,36.17
2022-11-18T20:24:07.338Z,32.17
2022-11-18T20:26:37.278Z,27.92
2022-11-18T20:29:05.144Z,39.63
2022-11-18T20:31:35.234Z,33.22
2022-11-18T20:34:04.492Z,25.92
2022-11-18T20:36:33.777Z,28.00
2022-11-18T20:39:05.879Z,25.70
2022-11-18T20:41:32.814Z,35.15
2022-11-18T20:44:00.799Z,29.27
2022-11-18T20:46:30.855Z,29.67
2022-11-18T20:48:57.559Z,30.17
2022-11-18T20:51:26.541Z,26.33
2022-11-18T20:53:55.816Z,44.17
2022-11-18T20:56:27.504Z,31.75
2022-11-18T20:58:56.751Z,23.48
2022-11-18T21:01:26.336Z,18.15
2022-11-18T21:03:55.376Z,23.80
2022-11-18T21:06:24.088Z,30.75
2022-11-18T21:08:58.672Z,21.60
2022-11-18T21:11:26.594Z,14.38
2022-11-18T21:14:11.931Z,19.55
2022-11-18T21:16:40.163Z,25.08
2022-11-18T21:19:06.791Z,28.52
2022-11-18T21:21:45.883Z,22.58
2022-11-18T21:24:14.687Z,26.85
2022-11-18T21:26:41.647Z,21.08
2022-11-18T21:29:10.472Z,25.67
2022-11-18T21:31:37.388Z,20.80
2022-11-18T21:34:04.807Z,27.73
2022-11-18T21:36:31.643Z,30.17
2022-11-18T21:39:00.052Z,28.05
2022-11-18T21:46:35.698Z,26.35
2022-11-18T21:49:03.352Z,33.47
2022-11-18T21:51:32.039Z,35.55
2022-11-18T21:53:59.475Z,33.53
2022-11-18T21:56:31.736Z,37.22
2022-11-18T21:59:00.946Z,30.70
2022-11-18T22:01:30.588Z,31.75
2022-11-18T22:03:59.567Z,34.17
2022-11-18T22:06:29.686Z,39.20
2022-11-18T22:08:56.556Z,55.97
2022-11-18T22:11:25.131Z,58.05
2022-11-18T22:13:52.916Z,51.03
2022-11-18T22:16:22.749Z,37.63
2022-11-18T22:18:56.473Z,36.45
2022-11-18T22:21:26.379Z,41.35
2022-11-18T22:23:56.998Z,32.55
2022-11-18T22:26:23.604Z,53.28
2022-11-18T22:28:54.783Z,54.05
2022-11-18T22:31:23.466Z,36.03
2022-11-18T22:33:51.772Z,28.48
2022-11-18T22:36:20.710Z,32.58
2022-11-18T22:38:47.513Z,36.53
2022-11-18T22:41:38.131Z,34.35
2022-11-18T22:44:08.020Z,42.40
2022-11-18T22:46:40.299Z,37.90
2022-11-18T22:49:08.024Z,39.50
2022-11-18T22:51:35.938Z,42.08
2022-11-18T22:56:50.405Z,39.42
2022-11-18T22:59:17.377Z,44.70
2022-11-18T23:01:44.236Z,41.83
2022-11-18T23:04:10.839Z,32.60
2022-11-18T23:06:37.495Z,34.05
2022-11-18T23:09:04.143Z,41.10
2022-11-18T23:11:49.438Z,40.72
2022-11-18T23:14:16.419Z,38.28
2022-11-18T23:16:43.380Z,30.08
2022-11-18T23:19:12.831Z,31.10
2022-11-18T23:21:39.945Z,38.75
2022-11-18T23:24:06.788Z,36.03
2022-11-18T23:26:33.511Z,39.53
2022-11-18T23:29:00.054Z,37.92
2022-11-18T23:31:27.393Z,38.17
2022-11-18T23:33:56.773Z,36.42
2022-11-18T23:36:25.039Z,35.22
2022-11-18T23:38:53.421Z,27.35
2022-11-18T23:41:20.918Z,38.15
2022-11-18T23:43:48.685Z,38.75
2022-11-18T23:46:17.072Z,35.00
2022-11-18T23:48:44.283Z,34.78
2022-11-18T23:51:20.346Z,30.70
2022-11-18T23:53:48.885Z,27.13
2022-11-18T23:56:17.159Z,31.75
2022-11-18T23:58:45.766Z,29.27
